createdAt,value
2022-11-19T00:00:06.064Z,2.75
2022-11-19T00:02:32.487Z,2.63
2022-11-19T00:04:58.939Z,2.70
2022-11-19T00:07:25.387Z,2.60
2022-11-19T00:09:51.988Z,2.58
2022-11-19T00:12:36.861Z,2.54
2022-11-19T00:15:03.389Z,2.80
2022-11-19T00:17:29.910Z,2.65
2022-11-19T00:19:56.277Z,2.57
2022-11-19T00:22:22.651Z,2.62
2022-11-19T00:24:49.008Z,2.59
2022-11-19T00:27:15.449Z,2.57
2022-11-19T00:29:41.805Z,2.41
2022-11-19T00:32:08.177Z,2.49
2022-11-19T00:34:34.518Z,2.51
2022-11-19T00:37:00.902Z,2.58
2022-11-19T00:39:27.269Z,2.41
2022-11-19T00:41:53.651Z,2.62
2022-11-19T00:44:20.012Z,2.44
2022-11-19T00:46:46.420Z,2.63
2022-11-19T00:49:12.780Z,2.64
2022-11-19T00:51:39.179Z,2.47
2022-11-19T00:54:05.586Z,2.58
2022-11-19T00:56:31.982Z,2.44
2022-11-19T00:58:58.435Z,2.43
2022-11-19T01:01:25.724Z,2.36
2022-11-19T01:03:52.966Z,2.26
2022-11-19T01:06:20.712Z,2.33
2022-11-19T01:08:48.454Z,2.23
2022-11-19T01:11:18.311Z,2.33
2022-11-19T01:13:44.692Z,2.37
2022-11-19T01:16:31.866Z,2.51
2022-11-19T01:18:58.653Z,2.45
2022-11-19T01:21:28.771Z,2.60
2022-11-19T01:23:55.179Z,2.36
2022-11-19T01:26:21.668Z,2.25
2022-11-19T01:28:48.147Z,2.17
2022-11-19T01:31:19.814Z,2.14
2022-11-19T01:33:46.944Z,1.88
2022-11-19T01:36:21.481Z,1.87
2022-11-19T01:38:50.807Z,2.02
2022-11-19T01:41:30.353Z,2.02
2022-11-19T01:44:02.123Z,2.10
2022-11-19T01:46:31.029Z,1.98
2022-11-19T01:49:13.230Z,1.94
2022-11-19T01:51:49.397Z,1.92
2022-11-19T01:54:25.437Z,1.88
2022-11-19T01:56:53.814Z,1.85
2022-11-19T01:59:21.095Z,1.94
2022-11-19T02:01:47.758Z,1.98
2022-11-19T02:04:15.605Z,1.67
2022-11-19T02:06:43.250Z,2.00
2022-11-19T02:09:09.635Z,1.87
2022-11-19T02:12:09.534Z,1.89
2022-11-19T02:15:03.329Z,1.68
2022-11-19T02:17:38.645Z,1.95
2022-11-19T02:20:32.947Z,2.27
2022-11-19T02:23:28.481Z,1.97
2022-11-19T02:26:17.387Z,1.71
2022-11-19T02:28:50.210Z,1.79
2022-11-19T02:31:26.779Z,1.69
2022-11-19T02:34:00.290Z,1.67
2022-11-19T02:36:35.139Z,1.92
2022-11-19T02:39:01.413Z,1.88
2022-11-19T02:41:34.104Z,2.14
2022-11-19T02:44:45.951Z,2.02
2022-11-19T02:47:16.349Z,1.91
2022-11-19T02:49:44.922Z,1.81
2022-11-19T02:52:13.806Z,1.81
2022-11-19T02:54:40.227Z,1.63
2022-11-19T02:57:06.683Z,1.55
2022-11-19T02:59:57.350Z,1.61
2022-11-19T03:02:45.497Z,1.72
2022-11-19T03:05:16.613Z,1.83
2022-11-19T03:07:43.063Z,1.81
2022-11-19T03:10:10.451Z,1.59
2022-11-19T03:13:24.630Z,1.43
2022-11-19T03:16:10.868Z,1.72
2022-11-19T03:19:06.303Z,1.43
2022-11-19T03:21:42.711Z,1.49
2022-11-19T03:24:14.991Z,1.47
2022-11-19T03:26:45.735Z,1.50
2022-11-19T03:29:14.430Z,1.41
2022-11-19T03:31:43.485Z,1.49
2022-11-19T03:34:16.896Z,1.62
2022-11-19T03:36:44.132Z,1.76
2022-11-19T03:39:14.513Z,1.51
2022-11-19T03:41:42.352Z,1.53
2022-11-19T03:44:15.270Z,1.55
2022-11-19T03:46:43.275Z,1.49
2022-11-19T03:49:10.885Z,1.39
2022-11-19T03:51:42.458Z,1.30
2022-11-19T03:54:09.188Z,1.39
2022-11-19T03:56:37.907Z,1.49
2022-11-19T03:59:04.915Z,1.63
2022-11-19T04:01:33.487Z,1.50
2022-11-19T04:04:18.489Z,1.51
2022-11-19T04:06:44.849Z,1.44
2022-11-19T04:09:11.200Z,1.23
2022-11-19T04:11:37.571Z,1.47
2022-11-19T04:14:03.957Z,1.32
2022-11-19T04:16:30.330Z,1.39
2022-11-19T04:18:56.700Z,1.38
2022-11-19T04:21:23.296Z,1.34
2022-11-19T04:23:49.646Z,1.37
2022-11-19T04:26:16.063Z,1.13
2022-11-19T04:28:42.435Z,1.30
2022-11-19T04:31:12.278Z,1.38
2022-11-19T04:33:41.327Z,1.22
2022-11-19T04:36:08.102Z,1.06
2022-11-19T04:38:34.756Z,1.05
2022-11-19T04:41:01.132Z,1.09
2022-11-19T04:43:27.505Z,1.09
2022-11-19T04:45:53.883Z,0.98
2022-11-19T04:48:20.247Z,1.01
2022-11-19T04:50:46.646Z,1.11
2022-11-19T04:53:14.132Z,1.05
2022-11-19T04:55:41.580Z,1.06
2022-11-19T04:58:07.939Z,1.08
2022-11-19T05:00:34.337Z,0.99
2022-11-19T05:03:00.730Z,1.05
2022-11-19T05:05:27.103Z,1.09
2022-11-19T05:07:53.485Z,1.10
2022-11-19T05:10:19.875Z,1.13
2022-11-19T05:12:46.303Z,0.96
2022-11-19T05:15:12.688Z,0.87
2022-11-19T05:17:39.084Z,0.86
2022-11-19T05:20:06.011Z,0.89
2022-11-19T05:22:32.423Z,0.82
2022-11-19T05:24:58.779Z,0.84
2022-11-19T05:27:25.160Z,0.91
2022-11-19T05:29:51.516Z,1.07
2022-11-19T05:32:17.942Z,0.96
2022-11-19T05:34:44.647Z,0.94
2022-11-19T05:37:11.015Z,0.97
2022-11-19T05:39:37.384Z,0.96
2022-11-19T05:42:03.803Z,0.93
2022-11-19T05:44:30.187Z,0.97
2022-11-19T05:46:57.441Z,1.15
2022-11-19T05:49:23.814Z,0.97
2022-11-19T05:51:50.206Z,1.10
2022-11-19T05:54:16.761Z,0.90
2022-11-19T05:56:43.363Z,0.97
2022-11-19T05:59:09.783Z,0.94
2022-11-19T06:01:36.212Z,0.96
2022-11-19T06:04:02.728Z,0.87
2022-11-19T06:06:29.604Z,0.97
2022-11-19T06:08:55.988Z,1.17
2022-11-19T06:11:40.845Z,0.98
2022-11-19T06:14:07.253Z,0.89
2022-11-19T06:16:33.669Z,0.74
2022-11-19T06:19:00.040Z,0.90
2022-11-19T06:21:26.391Z,0.81
2022-11-19T06:23:52.761Z,0.81
2022-11-19T06:26:26.375Z,0.91
2022-11-19T06:28:53.128Z,0.89
2022-11-19T06:31:19.996Z,0.90
2022-11-19T06:33:46.514Z,0.67
2022-11-19T06:36:13.291Z,0.75
2022-11-19T06:38:39.881Z,0.59
2022-11-19T06:41:06.446Z,0.81
2022-11-19T06:43:32.825Z,0.91
2022-11-19T06:45:59.188Z,0.69
2022-11-19T06:48:25.565Z,0.73
2022-11-19T06:50:51.938Z,0.43
2022-11-19T06:53:18.342Z,0.47
2022-11-19T06:55:44.707Z,0.69
2022-11-19T06:58:11.073Z,0.64
2022-11-19T07:00:37.438Z,0.73
2022-11-19T07:03:03.928Z,0.71
2022-11-19T07:05:30.335Z,0.79
2022-11-19T07:08:01.525Z,0.65
2022-11-19T07:10:29.373Z,0.62
2022-11-19T07:12:55.796Z,0.59
2022-11-19T07:15:22.168Z,0.44
2022-11-19T07:17:48.794Z,0.45
2022-11-19T07:20:15.199Z,0.48
2022-11-19T07:22:42.270Z,0.40
2022-11-19T07:25:12.425Z,0.42
2022-11-19T07:27:39.743Z,0.38
2022-11-19T07:30:07.370Z,0.35
2022-11-19T07:32:34.059Z,0.32
2022-11-19T07:35:00.447Z,0.32
2022-11-19T07:37:26.828Z,0.47
2022-11-19T07:39:53.218Z,0.20
2022-11-19T07:42:38.404Z,0.27
2022-11-19T07:45:05.397Z,0.05
2022-11-19T07:47:33.739Z,0.03
2022-11-19T07:50:00.144Z,0.20
2022-11-19T07:52:26.556Z,0.09
2022-11-19T07:54:52.931Z,0.09
2022-11-19T07:57:19.661Z,0.24
2022-11-19T07:59:46.027Z,0.06
2022-11-19T08:02:13.070Z,0.20
2022-11-19T08:04:39.539Z,0.09
2022-11-19T08:07:05.962Z,-0.13
2022-11-19T08:09:32.511Z,-0.28
2022-11-19T08:11:58.954Z,-0.06
2022-11-19T08:14:25.382Z,-0.17
2022-11-19T08:17:09.989Z,-0.09
2022-11-19T08:19:36.462Z,-0.15
2022-11-19T08:22:02.818Z,-0.11
2022-11-19T08:24:29.356Z,-0.19
2022-11-19T08:26:55.745Z,-0.07
2022-11-19T08:29:23.648Z,-0.05
2022-11-19T08:31:50.691Z,-0.04
2022-11-19T08:34:18.076Z,-0.06
2022-11-19T08:36:44.678Z,-0.06
2022-11-19T08:39:11.327Z,-0.20
2022-11-19T08:41:56.187Z,-0.19
2022-11-19T08:44:22.982Z,-0.26
2022-11-19T08:46:50.485Z,-0.35
2022-11-19T08:49:17.114Z,-0.13
2022-11-19T08:51:43.498Z,-0.03
2022-11-19T08:54:09.896Z,0.05
2022-11-19T08:56:36.334Z,0.05
2022-11-19T08:59:03.401Z,0.26
2022-11-19T09:01:30.514Z,0.08
2022-11-19T09:03:56.933Z,0.11
2022-11-19T09:06:23.297Z,0.14
2022-11-19T09:08:49.712Z,-0.13
2022-11-19T09:11:18.418Z,-0.08
2022-11-19T09:13:44.880Z,-0.05
2022-11-19T09:16:11.650Z,0.19
2022-11-19T09:18:39.185Z,0.09
2022-11-19T09:21:07.401Z,0.17
2022-11-19T09:23:33.929Z,0.10
2022-11-19T09:26:06.334Z,0.20
2022-11-19T09:28:32.892Z,0.47
2022-11-19T09:31:04.903Z,0.40
2022-11-19T09:33:32.470Z,0.64
2022-11-19T09:35:58.852Z,0.70
2022-11-19T09:38:25.261Z,0.63
2022-11-19T09:40:53.876Z,0.73
2022-11-19T09:43:45.316Z,0.63
2022-11-19T09:46:24.926Z,0.65
2022-11-19T09:48:52.618Z,0.83
2022-11-19T09:51:22.310Z,0.78
2022-11-19T09:53:52.722Z,0.80
2022-11-19T09:56:26.212Z,0.77
2022-11-19T09:58:53.654Z,0.91
2022-11-19T10:01:20.096Z,0.96
2022-11-19T10:03:48.731Z,0.86
2022-11-19T10:06:15.036Z,0.83
2022-11-19T10:08:57.988Z,0.61
2022-11-19T10:11:49.990Z,0.88
2022-11-19T10:14:57.771Z,0.68
2022-11-19T10:17:36.028Z,0.92
2022-11-19T10:20:31.875Z,1.15
2022-11-19T10:23:17.749Z,1.59
2022-11-19T10:25:49.796Z,1.66
2022-11-19T10:28:19.670Z,2.36
2022-11-19T10:30:51.643Z,2.32
2022-11-19T10:33:26.485Z,2.49
2022-11-19T10:36:00.578Z,1.68
2022-11-19T10:38:32.672Z,1.40
2022-11-19T10:41:08.923Z,1.18
2022-11-19T10:43:48.068Z,1.40
2022-11-19T10:46:17.391Z,1.38
2022-11-19T10:48:46.717Z,1.50
2022-11-19T10:51:22.575Z,1.12
2022-11-19T10:53:49.316Z,0.88
2022-11-19T10:56:19.808Z,0.93
2022-11-19T10:58:58.570Z,0.63
2022-11-19T11:01:29.716Z,0.68
2022-11-19T11:04:07.108Z,0.59
2022-11-19T11:06:52.812Z,0.73
2022-11-19T11:09:36.161Z,0.77
2022-11-19T11:12:42.185Z,1.06
2022-11-19T11:15:15.561Z,1.21
2022-11-19T11:17:42.688Z,1.49
2022-11-19T11:20:18.083Z,1.31
2022-11-19T11:22:46.682Z,1.67
2022-11-19T11:25:20.630Z,1.29
2022-11-19T11:28:13.426Z,1.21
2022-11-19T11:30:59.353Z,1.38
2022-11-19T11:33:35.872Z,1.30
2022-11-19T11:36:13.909Z,1.49
2022-11-19T11:38:43.181Z,1.49
2022-11-19T11:42:04.359Z,1.78
2022-11-19T11:44:14.464Z,1.65
2022-11-19T11:46:49.849Z,1.42
2022-11-19T11:49:37.317Z,1.29
2022-11-19T11:52:09.823Z,1.39
2022-11-19T11:54:37.495Z,1.56
2022-11-19T11:57:57.462Z,1.63
2022-11-19T12:00:38.079Z,2.06
2022-11-19T12:03:05.683Z,2.13
2022-11-19T12:06:05.722Z,2.12
2022-11-19T12:08:43.252Z,2.17
2022-11-19T12:11:54.105Z,2.45
2022-11-19T12:14:25.576Z,2.46
2022-11-19T12:17:16.945Z,2.28
2022-11-19T12:20:17.735Z,2.46
2022-11-19T12:23:02.750Z,1.98
2022-11-19T12:25:38.079Z,1.93
2022-11-19T12:28:16.479Z,1.80
2022-11-19T12:31:16.974Z,2.17
2022-11-19T12:33:55.625Z,2.08
2022-11-19T12:36:25.657Z,2.07
2022-11-19T12:39:07.202Z,2.16
2022-11-19T12:42:05.206Z,2.17
2022-11-19T12:44:49.817Z,2.26
2022-11-19T12:47:44.556Z,2.13
2022-11-19T12:50:23.567Z,1.97
2022-11-19T12:52:54.031Z,2.09
2022-11-19T12:55:47.473Z,1.69
2022-11-19T12:58:44.583Z,1.79
2022-11-19T13:01:20.023Z,1.62
2022-11-19T13:04:19.856Z,1.78
2022-11-19T13:06:57.068Z,1.97
2022-11-19T13:09:39.728Z,2.32
2022-11-19T13:12:09.213Z,2.46
2022-11-19T13:14:41.459Z,2.11
2022-11-19T13:17:14.410Z,1.72
2022-11-19T13:19:42.231Z,1.93
2022-11-19T13:22:20.822Z,2.17
2022-11-19T13:24:54.743Z,2.40
2022-11-19T13:27:23.786Z,2.37
2022-11-19T13:29:54.282Z,2.52
2022-11-19T13:32:26.334Z,2.70
2022-11-19T13:35:13.952Z,2.52
2022-11-19T13:38:04.048Z,2.10
2022-11-19T13:41:08.994Z,2.15
2022-11-19T13:43:54.130Z,1.78
2022-11-19T13:46:27.147Z,1.61
2022-11-19T13:48:59.088Z,1.65
2022-11-19T13:51:39.159Z,1.67
2022-11-19T13:54:07.712Z,1.68
2022-11-19T13:56:48.361Z,1.77
2022-11-19T13:59:44.351Z,1.87
2022-11-19T14:02:27.099Z,2.01
2022-11-19T14:05:08.665Z,2.16
2022-11-19T14:08:02.883Z,2.09
2022-11-19T14:10:37.588Z,2.13
2022-11-19T14:13:03.939Z,2.25
2022-11-19T14:16:16.362Z,2.23
2022-11-19T14:19:07.026Z,2.07
2022-11-19T14:21:52.131Z,2.04
2022-11-19T14:25:05.613Z,1.60
2022-11-19T14:27:32.824Z,1.67
2022-11-19T14:30:04.500Z,1.52
2022-11-19T14:32:32.184Z,1.30
2022-11-19T14:35:01.490Z,1.37
2022-11-19T14:37:37.009Z,1.15
2022-11-19T14:40:12.523Z,1.49
2022-11-19T14:43:19.499Z,1.65
2022-11-19T14:46:00.779Z,1.66
2022-11-19T14:48:34.234Z,1.59
2022-11-19T14:51:06.849Z,1.74
2022-11-19T14:53:38.665Z,1.61
2022-11-19T14:56:12.455Z,1.30
2022-11-19T14:58:38.838Z,1.43
2022-11-19T15:01:06.971Z,1.14
2022-11-19T15:03:33.541Z,1.17
2022-11-19T15:06:05.527Z,1.28
2022-11-19T15:08:53.932Z,1.37
2022-11-19T15:11:20.546Z,1.34
2022-11-19T15:13:48.748Z,1.28
2022-11-19T15:16:19.027Z,1.15
2022-11-19T15:18:45.327Z,1.21
2022-11-19T15:21:33.527Z,1.09
2022-11-19T15:24:13.811Z,1.03
2022-11-19T15:26:58.599Z,1.02
2022-11-19T15:30:02.239Z,0.81
2022-11-19T15:33:02.952Z,0.66
2022-11-19T15:35:38.479Z,0.56
2022-11-19T15:38:19.703Z,0.76
2022-11-19T15:40:47.778Z,0.58
2022-11-19T15:43:22.815Z,0.32
2022-11-19T15:45:55.234Z,0.33
2022-11-19T15:48:40.481Z,0.24
2022-11-19T15:51:07.789Z,0.20
2022-11-19T15:53:34.237Z,0.27
2022-11-19T15:56:10.382Z,0.16
2022-11-19T15:58:39.526Z,0.30
2022-11-19T16:01:08.404Z,0.21
2022-11-19T16:03:37.839Z,0.25
2022-11-19T16:06:09.849Z,0.37
2022-11-19T16:08:36.554Z,0.40
2022-11-19T16:11:22.047Z,0.42
2022-11-19T16:14:11.293Z,0.47
2022-11-19T16:16:57.059Z,0.16
2022-11-19T16:19:23.867Z,0.28
2022-11-19T16:22:02.399Z,0.39
2022-11-19T16:24:48.519Z,0.29
2022-11-19T16:27:23.594Z,0.12
2022-11-19T16:29:50.763Z,0.09
2022-11-19T16:32:18.914Z,0.22
2022-11-19T16:34:45.718Z,0.24
2022-11-19T16:37:13.550Z,-0.03
2022-11-19T16:39:40.359Z,-0.07
2022-11-19T16:42:17.746Z,-0.07
2022-11-19T16:44:53.576Z,-0.01
2022-11-19T16:47:31.611Z,-0.07
2022-11-19T16:50:21.412Z,0.01
2022-11-19T16:52:47.819Z,-0.04
2022-11-19T16:55:23.311Z,-0.12
2022-11-19T16:57:54.461Z,-0.09
2022-11-19T17:00:23.147Z,-0.21
2022-11-19T17:02:50.732Z,-0.27
2022-11-19T17:05:19.259Z,-0.39
2022-11-19T17:07:48.656Z,-0.19
2022-11-19T17:10:26.046Z,-0.31
2022-11-19T17:13:27.207Z,-0.22
2022-11-19T17:15:53.650Z,-0.15
2022-11-19T17:18:30.231Z,-0.18
2022-11-19T17:21:08.294Z,-0.18
2022-11-19T17:23:46.136Z,-0.29
2022-11-19T17:26:17.001Z,-0.39
2022-11-19T17:28:46.443Z,-0.39
2022-11-19T17:31:15.876Z,-0.29
2022-11-19T17:34:12.250Z,-0.18
2022-11-19T17:36:39.794Z,-0.19
2022-11-19T17:39:13.118Z,-0.20
2022-11-19T17:41:58.075Z,-0.18
2022-11-19T17:44:34.371Z,-0.26
2022-11-19T17:47:21.165Z,-0.19
2022-11-19T17:49:49.112Z,-0.05
2022-11-19T17:52:26.638Z,-0.13
2022-11-19T17:54:55.521Z,-0.24
2022-11-19T17:57:21.958Z,-0.50
2022-11-19T17:59:48.339Z,-0.42
2022-11-19T18:02:16.765Z,-0.46
2022-11-19T18:04:44.256Z,-0.54
2022-11-19T18:07:11.683Z,-0.48
2022-11-19T18:09:38.997Z,-0.52
2022-11-19T18:12:07.221Z,-0.52
2022-11-19T18:14:33.692Z,-0.44
2022-11-19T18:17:00.195Z,-0.61
2022-11-19T18:19:28.531Z,-0.69
2022-11-19T18:21:55.650Z,-0.72
2022-11-19T18:24:22.606Z,-0.55
2022-11-19T18:26:49.275Z,-0.68
2022-11-19T18:29:15.690Z,-0.33
2022-11-19T18:31:44.590Z,-0.38
2022-11-19T18:34:19.617Z,-0.29
2022-11-19T18:36:46.767Z,-0.28
2022-11-19T18:39:13.542Z,-0.54
2022-11-19T18:41:40.495Z,-0.57
2022-11-19T18:44:26.009Z,-0.68
2022-11-19T18:46:52.440Z,-0.61
2022-11-19T18:49:19.311Z,-0.49
2022-11-19T18:51:47.448Z,-0.44
2022-11-19T18:54:14.254Z,-0.59
2022-11-19T18:56:40.694Z,-0.57
2022-11-19T18:59:07.248Z,-0.62
2022-11-19T19:01:33.681Z,-0.49
2022-11-19T19:04:00.220Z,-0.72
2022-11-19T19:06:28.486Z,-0.78
2022-11-19T19:08:54.866Z,-0.87
2022-11-19T19:11:40.031Z,-0.88
2022-11-19T19:14:06.503Z,-0.75
2022-11-19T19:16:34.650Z,-0.74
2022-11-19T19:19:01.965Z,-0.77
2022-11-19T19:21:28.677Z,-0.98
2022-11-19T19:23:55.192Z,-1.04
2022-11-19T19:26:22.012Z,-0.77
2022-11-19T19:28:50.433Z,-0.79
2022-11-19T19:31:18.077Z,-0.73
2022-11-19T19:33:46.142Z,-0.68
2022-11-19T19:36:12.755Z,-0.78
2022-11-19T19:38:40.704Z,-1.11
2022-11-19T19:41:09.344Z,-1.35
2022-11-19T19:43:35.777Z,-1.29
2022-11-19T19:46:04.391Z,-1.33
2022-11-19T19:48:30.796Z,-1.47
2022-11-19T19:50:57.411Z,-1.46
2022-11-19T19:53:23.852Z,-1.58
2022-11-19T19:55:50.201Z,-1.35
2022-11-19T19:58:16.620Z,-1.16
2022-11-19T20:00:43.006Z,-1.22
2022-11-19T20:03:09.395Z,-1.44
2022-11-19T20:05:35.816Z,-1.30
2022-11-19T20:08:02.259Z,-1.66
2022-11-19T20:10:28.653Z,-1.67
2022-11-19T20:13:13.591Z,-1.61
2022-11-19T20:15:41.094Z,-1.55
2022-11-19T20:18:07.614Z,-1.45
2022-11-19T20:20:33.979Z,-1.26
2022-11-19T20:23:00.350Z,-1.24
2022-11-19T20:25:26.837Z,-1.16
2022-11-19T20:27:53.247Z,-1.17
2022-11-19T20:30:20.218Z,-1.21
2022-11-19T20:32:48.535Z,-1.33
2022-11-19T20:35:15.180Z,-1.23
2022-11-19T20:37:41.650Z,-1.28
2022-11-19T20:40:08.739Z,-1.19
2022-11-19T20:42:53.486Z,-1.09
2022-11-19T20:45:21.391Z,-1.02
2022-11-19T20:47:47.779Z,-1.21
2022-11-19T20:50:14.193Z,-1.21
2022-11-19T20:52:40.549Z,-1.26
2022-11-19T20:55:07.309Z,-1.40
2022-11-19T20:57:33.674Z,-1.48
2022-11-19T21:00:00.394Z,-1.51
2022-11-19T21:02:26.845Z,-1.42
2022-11-19T21:04:53.247Z,-1.53
2022-11-19T21:07:19.679Z,-1.37
2022-11-19T21:09:46.825Z,-1.50
2022-11-19T21:12:13.197Z,-1.47
2022-11-19T21:14:39.585Z,-1.66
2022-11-19T21:17:05.970Z,-1.51
2022-11-19T21:19:32.461Z,-1.65
2022-11-19T21:21:58.831Z,-1.63
2022-11-19T21:24:25.277Z,-1.55
2022-11-19T21:26:51.964Z,-1.62
2022-11-19T21:29:18.499Z,-1.55
2022-11-19T21:31:47.200Z,-1.57
2022-11-19T21:34:15.402Z,-1.87
2022-11-19T21:36:42.696Z,-1.93
2022-11-19T21:39:09.781Z,-1.89
2022-11-19T21:41:36.257Z,-1.98
2022-11-19T21:44:03.600Z,-2.10
2022-11-19T21:46:30.302Z,-2.01
2022-11-19T21:48:56.779Z,-2.05
2022-11-19T21:51:24.813Z,-2.01
2022-11-19T21:53:55.843Z,-1.72
2022-11-19T21:56:22.609Z,-1.96
2022-11-19T21:58:48.971Z,-2.17
2022-11-19T22:01:15.366Z,-2.15
2022-11-19T22:03:41.814Z,-2.30
2022-11-19T22:06:09.903Z,-2.35
2022-11-19T22:08:38.132Z,-2.31
2022-11-19T22:11:25.302Z,-2.12
2022-11-19T22:13:52.194Z,-2.21
2022-11-19T22:16:19.155Z,-2.22
2022-11-19T22:18:45.562Z,-2.17
2022-11-19T22:21:12.223Z,-1.85
2022-11-19T22:23:38.587Z,-2.28
2022-11-19T22:26:09.944Z,-2.26
2022-11-19T22:28:36.443Z,-2.06
2022-11-19T22:31:03.274Z,-1.98
2022-11-19T22:33:34.216Z,-2.10
2022-11-19T22:36:06.481Z,-2.19
2022-11-19T22:38:36.354Z,-2.53
2022-11-19T22:41:05.092Z,-2.56
2022-11-19T22:43:33.175Z,-2.50
2022-11-19T22:45:59.617Z,-2.50
2022-11-19T22:48:29.925Z,-2.54
2022-11-19T22:50:56.312Z,-2.67
2022-11-19T22:53:23.391Z,-2.28
2022-11-19T22:55:49.885Z,-2.13
2022-11-19T22:58:16.328Z,-2.19
2022-11-19T23:00:43.610Z,-2.54
2022-11-19T23:03:10.548Z,-2.68
2022-11-19T23:05:37.429Z,-2.69
2022-11-19T23:08:05.671Z,-2.39
2022-11-19T23:10:33.504Z,-2.16
2022-11-19T23:13:19.083Z,-2.27
2022-11-19T23:16:15.671Z,-2.24
2022-11-19T23:18:46.771Z,-1.91
2022-11-19T23:21:18.840Z,-1.99
2022-11-19T23:23:45.609Z,-2.29
2022-11-19T23:26:14.164Z,-2.54
2022-11-19T23:28:41.244Z,-2.69
2022-11-19T23:31:29.405Z,-2.81
2022-11-19T23:33:59.269Z,-2.56
2022-11-19T23:36:31.014Z,-2.64
2022-11-19T23:38:57.699Z,-2.63
2022-11-19T23:41:24.236Z,-2.68
2022-11-19T23:43:53.257Z,-2.69
2022-11-19T23:46:21.849Z,-2.69
2022-11-19T23:48:49.448Z,-2.85
2022-11-19T23:51:37.657Z,-2.80
2022-11-19T23:54:04.793Z,-2.84
2022-11-19T23:56:32.981Z,-2.94
2022-11-19T23:59:02.877Z,-2.75
